Time;durP1;ratioP1;P1;durP2;ratioP2;P2;SDS_P1;SDS_P2;PMS_P1;PMS_P2;Temp;Humidity;BMP_temperature;BMP_pressure;BME280_temperature;BME280_humidity;BME280_pressure;Samples;Min_cycle;Max_cycle;Signal;HPM_P1;HPM_P2
2022/11/23 00:01:09;;;;;;;21.70;8.23;;;8.00;99.90;;;;;;5040957;28;20048;-73
2022/11/23 00:03:35;;;;;;;20.90;8.60;;;8.00;99.90;;;;;;5074601;28;20053;-71
2022/11/23 00:06:01;;;;;;;19.20;7.85;;;8.00;99.90;;;;;;5075174;28;20045;-78
2022/11/23 00:08:27;;;;;;;20.55;8.48;;;8.00;99.90;;;;;;5074614;28;20489;-72
2022/11/23 00:10:56;;;;;;;22.73;8.18;;;7.90;99.90;;;;;;5074823;28;20083;-70
2022/11/23 00:13:22;;;;;;;23.70;9.35;;;8.00;99.90;;;;;;5056598;28;20136;-71
2022/11/23 00:15:47;;;;;;;25.60;8.52;;;8.00;99.90;;;;;;5074663;28;20086;-71
2022/11/23 00:18:14;;;;;;;21.20;7.72;;;7.90;99.90;;;;;;5074602;28;20052;-71
2022/11/23 00:20:40;;;;;;;20.60;7.68;;;8.00;99.90;;;;;;5075286;28;20055;-71
2022/11/23 00:23:05;;;;;;;22.25;7.85;;;8.00;99.90;;;;;;5056677;28;20056;-73
2022/11/23 00:25:31;;;;;;;24.27;8.98;;;8.00;99.90;;;;;;5074890;28;20055;-71
2022/11/23 00:27:57;;;;;;;20.02;7.75;;;8.00;99.90;;;;;;5056639;28;20063;-78
2022/11/23 00:30:22;;;;;;;24.88;7.90;;;8.00;99.90;;;;;;5056654;28;20055;-72
2022/11/23 00:32:48;;;;;;;24.45;7.55;;;7.90;99.90;;;;;;5056556;28;20106;-73
2022/11/23 00:35:14;;;;;;;23.50;8.05;;;7.90;99.90;;;;;;5056556;28;20558;-70
2022/11/23 00:37:40;;;;;;;22.98;8.18;;;8.00;99.90;;;;;;5056602;28;20084;-70
2022/11/23 00:40:06;;;;;;;18.45;8.15;;;7.90;99.90;;;;;;5057124;28;20127;-70
2022/11/23 00:42:31;;;;;;;20.73;7.70;;;8.00;99.90;;;;;;5074358;28;20052;-70
2022/11/23 00:44:57;;;;;;;21.23;7.95;;;8.00;99.90;;;;;;5056620;28;20044;-70
2022/11/23 00:47:23;;;;;;;22.67;9.40;;;7.90;99.90;;;;;;5074431;28;20366;-71
2022/11/23 00:49:48;;;;;;;27.23;8.10;;;7.90;99.90;;;;;;5057025;28;20059;-72
2022/11/23 00:52:14;;;;;;;20.08;7.97;;;8.00;99.90;;;;;;5074978;28;20118;-71
2022/11/23 00:54:40;;;;;;;17.30;7.57;;;7.90;99.90;;;;;;5057494;28;20040;-70
2022/11/23 00:57:05;;;;;;;17.23;7.40;;;7.90;99.90;;;;;;5040005;28;20043;-73
2022/11/23 00:59:31;;;;;;;15.70;7.28;;;7.90;99.90;;;;;;5074626;28;20040;-73
2022/11/23 01:01:57;;;;;;;20.55;7.78;;;8.00;99.90;;;;;;5074069;28;20525;-75
2022/11/23 01:04:23;;;;;;;18.65;7.30;;;8.00;99.90;;;;;;5055604;28;20400;-71
2022/11/23 01:06:48;;;;;;;16.85;7.30;;;8.00;99.90;;;;;;5055733;28;20040;-71
2022/11/23 01:09:16;;;;;;;16.42;7.15;;;8.00;99.90;;;;;;5055774;28;20044;-71
2022/11/23 01:11:43;;;;;;;20.63;7.95;;;8.00;99.90;;;;;;5073922;28;20040;-73
2022/11/23 01:14:10;;;;;;;24.55;8.23;;;8.00;99.90;;;;;;5055397;28;20052;-70
2022/11/23 01:16:38;;;;;;;15.73;7.70;;;8.00;99.90;;;;;;5073621;28;20432;-71
2022/11/23 01:19:07;;;;;;;17.67;8.07;;;8.00;99.90;;;;;;5073389;28;20068;-80
2022/11/23 01:21:34;;;;;;;15.48;7.53;;;8.00;99.90;;;;;;5056161;28;20041;-71
2022/11/23 01:24:07;;;;;;;20.42;7.50;;;8.00;99.90;;;;;;5073402;28;20132;-71
2022/11/23 01:26:33;;;;;;;15.68;7.47;;;8.00;99.90;;;;;;5073304;28;20040;-71
2022/11/23 01:28:59;;;;;;;15.75;7.50;;;8.00;99.90;;;;;;5055128;28;20048;-70
2022/11/23 01:31:26;;;;;;;18.13;7.60;;;8.10;99.90;;;;;;5056003;28;20040;-70
2022/11/23 01:33:56;;;;;;;18.50;7.50;;;8.00;99.90;;;;;;5073768;28;20135;-72
2022/11/23 01:36:25;;;;;;;21.70;7.07;;;8.00;99.90;;;;;;5055782;28;20120;-70
2022/11/23 01:38:51;;;;;;;15.80;6.72;;;8.00;99.90;;;;;;5073417;28;20048;-70
2022/11/23 01:41:30;;;;;;;16.95;7.45;;;8.00;99.90;;;;;;5055462;28;20519;-71
2022/11/23 01:43:55;;;;;;;15.73;7.55;;;8.00;99.90;;;;;;5055055;28;20063;-71
2022/11/23 01:46:22;;;;;;;19.48;7.53;;;8.00;99.90;;;;;;5072547;28;20044;-71
2022/11/23 01:48:59;;;;;;;19.88;7.70;;;8.00;99.90;;;;;;5055553;28;20040;-70
2022/11/23 01:51:33;;;;;;;18.10;8.07;;;8.00;99.90;;;;;;5072738;28;20044;-69
2022/11/23 01:54:13;;;;;;;19.05;8.13;;;8.00;99.90;;;;;;5073290;28;20040;-72
2022/11/23 01:56:42;;;;;;;22.83;8.18;;;8.00;99.90;;;;;;5072986;28;20045;-71
2022/11/23 01:59:15;;;;;;;20.85;8.00;;;8.00;99.90;;;;;;5072583;28;20131;-72
2022/11/23 02:01:41;;;;;;;20.30;8.45;;;7.90;99.90;;;;;;5055509;28;20083;-72
2022/11/23 02:04:11;;;;;;;18.17;8.02;;;7.90;99.90;;;;;;5055141;28;20384;-75
2022/11/23 02:06:39;;;;;;;20.33;7.57;;;8.00;99.90;;;;;;5055330;28;20510;-71
2022/11/23 02:09:06;;;;;;;19.63;7.70;;;7.90;99.90;;;;;;5072791;28;20094;-72
2022/11/23 02:11:32;;;;;;;17.45;7.60;;;7.90;99.90;;;;;;5055209;28;20088;-72
2022/11/23 02:13:59;;;;;;;16.10;7.47;;;7.90;99.90;;;;;;5072587;28;20062;-71
2022/11/23 02:16:25;;;;;;;17.33;7.85;;;7.90;99.90;;;;;;5054643;28;20480;-72
2022/11/23 02:18:52;;;;;;;17.90;7.85;;;7.90;99.90;;;;;;5054609;28;20041;-71
2022/11/23 02:21:18;;;;;;;23.48;8.13;;;7.90;99.90;;;;;;5072792;28;20119;-72
2022/11/23 02:24:11;;;;;;;21.52;8.40;;;7.90;99.90;;;;;;5072482;28;20131;-72
2022/11/23 02:26:37;;;;;;;20.90;7.95;;;7.90;99.90;;;;;;5072981;28;20175;-72
2022/11/23 02:29:10;;;;;;;25.45;8.43;;;7.90;99.90;;;;;;5072434;28;20045;-71
2022/11/23 02:31:35;;;;;;;19.33;7.35;;;7.90;99.90;;;;;;5072838;28;20084;-73
2022/11/23 02:34:01;;;;;;;18.95;8.52;;;7.90;99.90;;;;;;5072915;28;20447;-73
2022/11/23 02:36:49;;;;;;;19.58;8.18;;;7.90;99.90;;;;;;5054274;28;20435;-70
2022/11/23 02:39:33;;;;;;;20.88;8.60;;;7.90;99.90;;;;;;5072794;28;20133;-72
2022/11/23 02:41:59;;;;;;;25.58;9.60;;;7.90;99.90;;;;;;5072384;28;20045;-72
2022/11/23 02:44:47;;;;;;;23.40;8.80;;;8.00;99.90;;;;;;5054594;28;20389;-71
2022/11/23 02:47:13;;;;;;;23.85;9.00;;;7.90;99.90;;;;;;5038029;28;20098;-73
2022/11/23 02:49:40;;;;;;;22.20;8.93;;;8.00;99.90;;;;;;5072758;28;20485;-72
2022/11/23 02:52:07;;;;;;;24.60;9.38;;;8.00;99.90;;;;;;5072281;28;20121;-72
2022/11/23 02:54:33;;;;;;;27.80;9.45;;;8.00;99.90;;;;;;5072806;28;20103;-71
2022/11/23 02:56:59;;;;;;;26.67;10.07;;;8.00;99.90;;;;;;5073444;28;20044;-71
2022/11/23 02:59:24;;;;;;;27.80;9.93;;;8.00;99.90;;;;;;5076402;28;20066;-73
2022/11/23 03:01:50;;;;;;;30.20;10.73;;;8.00;99.90;;;;;;5076831;28;20060;-71
2022/11/23 03:04:16;;;;;;;30.05;10.75;;;8.00;99.90;;;;;;5076082;28;20056;-73
2022/11/23 03:06:42;;;;;;;29.70;10.38;;;8.00;99.90;;;;;;5076228;28;20086;-73
2022/11/23 03:09:07;;;;;;;32.80;11.35;;;8.00;99.90;;;;;;5076833;28;20086;-72
2022/11/23 03:11:33;;;;;;;27.80;10.73;;;8.00;99.90;;;;;;5076403;28;20120;-71
2022/11/23 03:13:59;;;;;;;32.00;11.02;;;8.00;99.90;;;;;;5075565;28;20056;-72
2022/11/23 03:16:25;;;;;;;32.92;11.00;;;8.00;99.90;;;;;;5075853;28;20048;-72
2022/11/23 03:18:50;;;;;;;30.73;11.35;;;8.00;99.90;;;;;;5057878;28;20052;-72
2022/11/23 03:21:16;;;;;;;30.75;11.52;;;8.10;99.90;;;;;;5076087;28;20071;-72
2022/11/23 03:23:42;;;;;;;35.03;11.45;;;8.10;99.90;;;;;;5058513;28;20036;-73
2022/11/23 03:26:08;;;;;;;31.30;11.65;;;8.10;99.90;;;;;;5075834;28;20037;-72
2022/11/23 03:28:34;;;;;;;37.05;12.07;;;8.10;99.90;;;;;;5058155;28;20123;-72
2022/11/23 03:30:59;;;;;;;34.47;11.75;;;8.10;99.90;;;;;;5057910;28;20052;-72
2022/11/23 03:33:25;;;;;;;29.90;11.80;;;8.10;99.90;;;;;;5057354;28;20048;-72
2022/11/23 03:35:51;;;;;;;35.75;11.98;;;8.00;99.90;;;;;;5057949;28;20044;-72
2022/11/23 03:38:17;;;;;;;34.90;12.18;;;8.10;99.90;;;;;;5041190;28;20044;-74
2022/11/23 03:40:46;;;;;;;33.50;11.60;;;8.10;99.90;;;;;;5075508;28;20044;-71
2022/11/23 03:43:13;;;;;;;34.35;12.20;;;8.10;99.90;;;;;;5075707;28;20071;-71
2022/11/23 03:45:38;;;;;;;;;;;8.10;99.90;;;;;;5075532;28;20084;-72
2022/11/23 03:48:05;;;;;;;36.72;11.13;;;8.20;99.90;;;;;;5074830;28;19974;-71
2022/11/23 03:50:30;;;;;;;33.45;11.82;;;8.10;99.90;;;;;;5075064;28;20435;-72
2022/11/23 03:52:56;;;;;;;26.25;11.07;;;8.20;99.90;;;;;;5074963;28;20040;-72
2022/11/23 03:55:22;;;;;;;34.15;12.45;;;8.10;99.90;;;;;;5074961;28;20105;-72
2022/11/23 03:57:48;;;;;;;28.77;11.27;;;8.20;99.90;;;;;;5040432;28;20045;-72
2022/11/23 04:00:14;;;;;;;33.75;11.82;;;8.10;99.90;;;;;;5024585;28;20044;-72
2022/11/23 04:02:41;;;;;;;33.15;12.75;;;8.10;99.90;;;;;;5057093;28;20055;-71
2022/11/23 04:05:07;;;;;;;35.53;13.25;;;8.10;99.90;;;;;;5075216;28;20137;-73
2022/11/23 04:07:33;;;;;;;32.53;12.43;;;8.10;99.90;;;;;;5074844;28;20404;-72
2022/11/23 04:09:58;;;;;;;33.33;12.20;;;8.10;99.90;;;;;;5074781;28;20052;-72
2022/11/23 04:12:25;;;;;;;32.17;12.38;;;8.10;99.90;;;;;;5057300;28;20052;-74
2022/11/23 04:14:51;;;;;;;36.60;12.38;;;8.10;99.90;;;;;;5075191;28;20049;-71
2022/11/23 04:17:17;;;;;;;39.78;13.68;;;8.10;99.90;;;;;;5057453;28;20044;-73
2022/11/23 04:19:42;;;;;;;32.30;13.40;;;8.10;99.90;;;;;;5074872;28;20388;-72
2022/11/23 04:22:08;;;;;;;38.35;13.30;;;8.10;99.90;;;;;;5040364;28;20468;-72
2022/11/23 04:24:34;;;;;;;38.38;13.27;;;8.20;99.90;;;;;;5074549;28;20049;-73
2022/11/23 04:26:59;;;;;;;32.53;12.73;;;8.20;99.90;;;;;;5074416;28;20423;-72
2022/11/23 04:29:25;;;;;;;37.05;12.98;;;8.20;99.90;;;;;;5074149;28;20124;-71
2022/11/23 04:31:51;;;;;;;32.90;12.13;;;8.20;99.90;;;;;;5074359;28;20051;-73
2022/11/23 04:34:16;;;;;;;34.53;12.15;;;8.20;99.90;;;;;;5074390;28;20040;-72
2022/11/23 04:36:42;;;;;;;36.15;12.32;;;8.10;99.90;;;;;;5074927;28;20111;-71
2022/11/23 04:39:11;;;;;;;33.17;12.38;;;8.10;99.90;;;;;;5057149;28;20536;-71
2022/11/23 04:41:37;;;;;;;32.35;11.85;;;8.10;99.90;;;;;;5074277;28;20166;-74
2022/11/23 04:44:04;;;;;;;31.15;11.65;;;8.10;99.90;;;;;;5056092;28;20136;-72
2022/11/23 04:46:29;;;;;;;36.05;12.18;;;8.10;99.90;;;;;;5056204;28;20048;-72
2022/11/23 04:48:55;;;;;;;33.80;11.18;;;8.10;99.90;;;;;;5056277;28;20187;-73
2022/11/23 04:51:21;;;;;;;33.88;12.40;;;8.00;99.90;;;;;;5039819;28;20048;-77
2022/11/23 04:53:47;;;;;;;36.38;11.60;;;8.00;99.90;;;;;;5074467;28;20076;-72
2022/11/23 04:56:13;;;;;;;34.30;11.07;;;8.00;99.90;;;;;;5074465;28;20463;-71
2022/11/23 04:58:38;;;;;;;26.42;9.80;;;8.00;99.90;;;;;;5055722;28;20122;-72
2022/11/23 05:01:05;;;;;;;32.92;11.38;;;8.00;99.90;;;;;;5040011;28;20087;-71
2022/11/23 05:03:33;;;;;;;32.67;10.77;;;8.10;99.90;;;;;;5073416;28;20048;-71
2022/11/23 05:06:01;;;;;;;29.55;9.80;;;8.00;99.90;;;;;;5055897;28;20040;-72
2022/11/23 05:08:27;;;;;;;35.08;11.38;;;8.00;99.90;;;;;;5073265;28;20488;-71
2022/11/23 05:10:52;;;;;;;35.10;10.60;;;7.90;99.90;;;;;;5073672;28;20044;-70
2022/11/23 05:13:18;;;;;;;29.75;9.65;;;7.90;99.90;;;;;;5051963;28;20049;-70
2022/11/23 05:15:44;;;;;;;33.15;10.05;;;7.80;99.90;;;;;;5053456;28;20071;-71
2022/11/23 05:18:11;;;;;;;29.95;10.38;;;7.80;99.90;;;;;;5054178;28;20048;-72
2022/11/23 05:20:37;;;;;;;28.55;9.73;;;7.80;99.90;;;;;;5052242;28;20385;-71
2022/11/23 05:23:03;;;;;;;27.73;9.07;;;7.70;99.90;;;;;;5053463;28;20193;-70
2022/11/23 05:25:28;;;;;;;25.27;8.77;;;7.70;99.90;;;;;;5053328;28;20051;-70
2022/11/23 05:27:54;;;;;;;37.80;9.18;;;7.60;99.90;;;;;;5053154;28;20049;-70
2022/11/23 05:30:20;;;;;;;24.63;8.60;;;7.60;99.90;;;;;;5053507;28;20051;-72
2022/11/23 05:32:46;;;;;;;25.35;8.77;;;7.50;99.90;;;;;;5053021;28;20040;-71
2022/11/23 05:35:12;;;;;;;25.70;9.30;;;7.50;99.90;;;;;;5053081;28;20430;-70
2022/11/23 05:37:37;;;;;;;26.10;8.45;;;7.40;99.90;;;;;;5035394;28;20132;-70
2022/11/23 05:40:04;;;;;;;24.95;8.15;;;7.40;99.90;;;;;;5053028;28;20511;-70
2022/11/23 05:42:30;;;;;;;29.65;8.73;;;7.50;99.90;;;;;;5051586;28;20048;-70
2022/11/23 05:44:56;;;;;;;25.75;8.15;;;7.40;99.90;;;;;;5051885;28;20071;-69
2022/11/23 05:47:22;;;;;;;26.88;8.40;;;7.50;99.90;;;;;;5051863;28;20065;-70
2022/11/23 05:49:49;;;;;;;26.70;8.27;;;7.40;99.90;;;;;;5052668;28;20049;-70
2022/11/23 05:52:15;;;;;;;23.88;8.20;;;7.40;99.90;;;;;;5035992;28;20049;-70
2022/11/23 05:54:40;;;;;;;33.25;8.02;;;7.40;99.90;;;;;;5052374;28;20049;-70
2022/11/23 05:57:06;;;;;;;30.48;7.38;;;7.40;99.90;;;;;;5052842;28;20156;-72
2022/11/23 05:59:32;;;;;;;17.77;6.65;;;7.50;99.90;;;;;;5052847;28;20044;-71
2022/11/23 06:01:57;;;;;;;25.95;7.00;;;7.50;99.90;;;;;;5034817;28;20521;-70
2022/11/23 06:04:23;;;;;;;22.15;6.72;;;7.40;99.90;;;;;;5052290;28;20060;-71
2022/11/23 06:06:49;;;;;;;23.15;5.88;;;7.40;99.90;;;;;;5033909;28;20041;-70
2022/11/23 06:09:14;;;;;;;25.67;7.35;;;7.30;99.90;;;;;;5053507;28;20057;-72
2022/11/23 06:11:40;;;;;;;23.92;7.13;;;7.30;99.90;;;;;;5052752;28;20068;-72
2022/11/23 06:14:06;;;;;;;20.60;6.22;;;7.10;99.90;;;;;;5051639;28;20056;-72
2022/11/23 06:16:32;;;;;;;27.55;5.68;;;7.10;99.90;;;;;;5053294;28;20563;-72
2022/11/23 06:18:57;;;;;;;24.58;7.00;;;7.00;99.90;;;;;;5052893;28;20037;-71
2022/11/23 06:21:23;;;;;;;26.25;6.55;;;6.90;99.90;;;;;;5052203;28;20214;-70
2022/11/23 06:23:49;;;;;;;25.23;5.65;;;6.90;99.90;;;;;;5052274;28;20142;-71
2022/11/23 06:26:14;;;;;;;22.02;5.80;;;6.80;99.90;;;;;;5034393;28;20037;-71
2022/11/23 06:28:40;;;;;;;25.83;6.10;;;6.80;99.90;;;;;;5034889;28;20507;-70
2022/11/23 06:31:06;;;;;;;25.58;6.68;;;6.80;99.90;;;;;;5052173;28;20049;-70
2022/11/23 06:33:33;;;;;;;25.38;7.15;;;6.80;99.90;;;;;;5052221;28;20063;-75
2022/11/23 06:36:00;;;;;;;23.48;5.75;;;6.90;99.90;;;;;;5051735;28;20061;-72
2022/11/23 06:38:27;;;;;;;18.23;5.45;;;6.90;99.90;;;;;;5052000;28;20080;-73
2022/11/23 06:40:56;;;;;;;16.35;5.55;;;6.80;99.90;;;;;;5052065;28;20063;-70
2022/11/23 06:43:22;;;;;;;24.77;5.88;;;6.90;99.90;;;;;;5051007;28;20056;-70
2022/11/23 06:45:47;;;;;;;20.17;5.45;;;6.90;99.90;;;;;;5052425;28;20414;-70
2022/11/23 06:48:13;;;;;;;22.35;5.63;;;7.00;99.90;;;;;;5052082;28;20199;-71
2022/11/23 06:50:39;;;;;;;19.20;5.60;;;7.00;99.90;;;;;;5052136;28;20057;-71
2022/11/23 06:53:04;;;;;;;23.50;5.85;;;7.00;99.90;;;;;;5052130;28;20037;-71
2022/11/23 06:55:30;;;;;;;29.88;6.40;;;7.10;99.90;;;;;;5051028;28;20041;-74
2022/11/23 06:57:58;;;;;;;21.17;5.85;;;7.10;99.90;;;;;;5051832;28;20088;-71
2022/11/23 07:00:24;;;;;;;24.00;6.00;;;7.20;99.90;;;;;;5052449;28;20128;-71
2022/11/23 07:02:54;;;;;;;25.00;6.90;;;7.20;99.90;;;;;;5050706;28;20084;-71
2022/11/23 07:05:20;;;;;;;23.33;6.03;;;7.20;99.90;;;;;;5051992;28;20449;-71
2022/11/23 07:07:46;;;;;;;24.85;6.35;;;7.20;99.90;;;;;;5052253;28;20094;-70
2022/11/23 07:10:12;;;;;;;23.52;6.03;;;7.20;99.90;;;;;;5052009;28;20044;-70
2022/11/23 07:12:39;;;;;;;15.40;5.72;;;7.30;99.90;;;;;;5053109;28;20386;-70
2022/11/23 07:15:06;;;;;;;18.52;5.65;;;7.30;99.90;;;;;;5072249;28;20106;-72
2022/11/23 07:17:32;;;;;;;23.88;6.13;;;7.30;99.90;;;;;;5072537;28;20052;-70
2022/11/23 07:19:57;;;;;;;19.40;5.40;;;7.30;99.90;;;;;;5071488;28;20382;-71
2022/11/23 07:22:23;;;;;;;21.75;5.97;;;7.40;99.90;;;;;;5071899;28;20059;-72
2022/11/23 07:24:49;;;;;;;25.27;6.18;;;7.40;99.90;;;;;;5054010;28;20040;-70
2022/11/23 07:27:19;;;;;;;23.38;5.55;;;7.50;99.90;;;;;;5053827;28;20041;-70
2022/11/23 07:29:44;;;;;;;17.00;5.25;;;7.50;99.90;;;;;;5053597;28;20404;-70
2022/11/23 07:32:10;;;;;;;20.92;5.82;;;7.40;99.90;;;;;;5071754;28;20048;-70
2022/11/23 07:34:36;;;;;;;20.10;5.10;;;7.50;99.90;;;;;;5071807;28;20149;-70
2022/11/23 07:37:03;;;;;;;18.50;5.50;;;7.50;99.90;;;;;;5071811;28;20072;-70
2022/11/23 07:39:29;;;;;;;17.25;5.70;;;7.60;99.90;;;;;;5072304;28;20117;-70
2022/11/23 07:41:55;;;;;;;19.20;4.60;;;7.60;99.90;;;;;;5071728;28;20044;-70
2022/11/23 07:44:21;;;;;;;20.35;4.70;;;7.60;99.90;;;;;;5057770;28;20063;-70
2022/11/23 07:46:47;;;;;;;23.95;5.13;;;7.60;99.90;;;;;;5057430;28;20383;-70
2022/11/23 07:49:12;;;;;;;23.85;4.78;;;7.60;99.90;;;;;;5057564;28;20045;-71
2022/11/23 07:51:38;;;;;;;22.70;4.60;;;7.70;99.90;;;;;;5075339;28;20088;-70
2022/11/23 07:54:04;;;;;;;17.58;4.32;;;7.70;99.90;;;;;;5075308;28;20084;-71
2022/11/23 07:56:30;;;;;;;16.70;4.72;;;7.80;99.90;;;;;;5057619;28;20098;-71
2022/11/23 07:58:55;;;;;;;24.50;4.82;;;7.80;99.90;;;;;;5057111;28;20049;-73
2022/11/23 08:01:21;;;;;;;22.48;5.15;;;7.80;99.90;;;;;;5075099;28;20088;-71
2022/11/23 08:03:47;;;;;;;16.20;4.55;;;7.90;99.90;;;;;;5075043;28;20041;-70
2022/11/23 08:06:14;;;;;;;20.80;4.85;;;7.90;99.90;;;;;;5075723;28;20090;-70
2022/11/23 08:08:41;;;;;;;18.83;4.40;;;8.00;99.90;;;;;;5057196;28;20097;-71
2022/11/23 08:11:08;;;;;;;16.50;4.65;;;8.00;99.90;;;;;;5057601;28;20286;-70
2022/11/23 08:13:36;;;;;;;25.15;6.10;;;8.10;99.90;;;;;;5075129;28;20060;-70
2022/11/23 08:16:02;;;;;;;21.33;4.70;;;8.10;99.90;;;;;;5074774;28;20109;-70
2022/11/23 08:18:28;;;;;;;23.25;4.10;;;8.20;99.90;;;;;;5074822;28;20036;-69
2022/11/23 08:20:54;;;;;;;27.17;5.15;;;8.20;99.90;;;;;;5074804;28;20040;-70
2022/11/23 08:23:20;;;;;;;22.73;4.03;;;8.20;99.90;;;;;;5057071;28;20063;-69
2022/11/23 08:25:46;;;;;;;21.63;3.88;;;8.30;99.90;;;;;;5057362;28;20128;-72
2022/11/23 08:28:11;;;;;;;17.50;4.22;;;8.30;99.90;;;;;;5074478;28;20469;-71
2022/11/23 08:30:37;;;;;;;23.35;3.97;;;8.30;99.90;;;;;;5040545;28;20060;-70
2022/11/23 08:33:04;;;;;;;16.30;4.88;;;8.40;99.90;;;;;;5074529;28;20044;-71
2022/11/23 08:35:39;;;;;;;18.52;4.00;;;8.40;99.90;;;;;;5075093;28;20044;-70
2022/11/23 08:38:06;;;;;;;21.88;4.07;;;8.40;99.90;;;;;;5074964;28;20149;-73
2022/11/23 08:40:32;;;;;;;20.58;5.03;;;8.50;99.90;;;;;;5056676;28;20066;-70
2022/11/23 08:42:58;;;;;;;18.30;4.07;;;8.50;99.90;;;;;;5074116;28;20052;-68
2022/11/23 08:45:24;;;;;;;18.85;3.95;;;8.50;99.90;;;;;;5074581;28;20359;-70
2022/11/23 08:47:50;;;;;;;22.00;4.07;;;8.60;99.90;;;;;;5056344;28;20518;-68
2022/11/23 08:50:16;;;;;;;21.95;4.07;;;8.60;99.90;;;;;;5074248;28;20052;-71
2022/11/23 08:52:42;;;;;;;16.50;3.47;;;8.70;99.90;;;;;;5074209;28;20080;-70
2022/11/23 08:55:08;;;;;;;20.65;3.42;;;8.80;99.90;;;;;;5072814;28;20055;-70
2022/11/23 08:57:34;;;;;;;17.30;3.43;;;8.80;99.90;;;;;;5056892;28;20048;-70
2022/11/23 09:00:00;;;;;;;17.02;3.88;;;8.80;99.90;;;;;;5073517;28;20512;-71
2022/11/23 09:02:26;;;;;;;22.10;3.97;;;8.90;99.90;;;;;;5056225;28;20049;-69
2022/11/23 09:04:51;;;;;;;17.90;3.20;;;8.90;99.90;;;;;;5073844;28;20041;-69
2022/11/23 09:07:17;;;;;;;15.13;2.65;;;8.90;99.90;;;;;;5073832;28;20041;-69
2022/11/23 09:09:43;;;;;;;20.60;3.90;;;9.00;99.90;;;;;;5074601;28;20106;-69
2022/11/23 09:12:08;;;;;;;22.10;3.40;;;8.90;99.90;;;;;;5073344;28;20485;-73
2022/11/23 09:14:34;;;;;;;17.50;3.10;;;8.90;99.90;;;;;;5073860;28;20052;-70
2022/11/23 09:17:01;;;;;;;26.00;4.20;;;9.00;99.90;;;;;;5056180;28;20048;-70
2022/11/23 09:19:27;;;;;;;21.73;4.13;;;9.10;99.90;;;;;;5073516;28;20097;-69
2022/11/23 09:21:53;;;;;;;16.40;2.97;;;9.00;99.90;;;;;;5055415;28;20053;-70
2022/11/23 09:24:19;;;;;;;22.02;3.63;;;9.10;99.90;;;;;;5073417;28;20076;-69
2022/11/23 09:26:44;;;;;;;17.48;2.63;;;9.10;99.90;;;;;;5074069;28;20135;-69
2022/11/23 09:29:10;;;;;;;15.40;2.70;;;9.10;99.90;;;;;;5038929;28;20043;-69
2022/11/23 09:31:36;;;;;;;19.48;2.88;;;9.10;99.90;;;;;;5073420;28;20048;-71
2022/11/23 09:34:03;;;;;;;18.95;2.60;;;9.10;99.90;;;;;;5073710;28;20053;-71
2022/11/23 09:36:29;;;;;;;21.35;3.33;;;9.00;99.90;;;;;;5073659;28;20457;-70
2022/11/23 09:38:54;;;;;;;16.90;3.00;;;9.00;99.90;;;;;;5073033;28;20048;-70
2022/11/23 09:41:48;;;;;;;17.80;3.00;;;9.00;99.90;;;;;;5039053;28;20046;-74
2022/11/23 09:44:51;;;;;;;19.20;3.17;;;9.00;99.90;;;;;;5073133;28;20048;-69
2022/11/23 09:47:38;;;;;;;17.33;3.33;;;9.00;99.90;;;;;;5073624;28;20342;-69
2022/11/23 09:50:06;;;;;;;23.85;2.92;;;9.10;99.90;;;;;;5073653;28;20071;-72
2022/11/23 09:52:35;;;;;;;16.83;2.08;;;9.00;99.90;;;;;;5073796;28;20393;-70
2022/11/23 09:55:08;;;;;;;17.98;2.85;;;8.90;99.90;;;;;;5054879;28;20503;-70
2022/11/23 09:57:35;;;;;;;15.98;2.92;;;8.90;99.90;;;;;;5054989;28;20079;-69
2022/11/23 10:00:14;;;;;;;20.75;2.92;;;8.70;99.90;;;;;;5072906;28;20370;-71
2022/11/23 10:02:40;;;;;;;19.08;2.60;;;8.70;99.90;;;;;;5073019;28;20170;-71
2022/11/23 10:05:09;;;;;;;24.33;2.95;;;8.70;99.90;;;;;;5073089;28;20084;-71
2022/11/23 10:07:45;;;;;;;14.27;2.13;;;8.70;99.90;;;;;;5072981;28;20123;-69
2022/11/23 10:10:32;;;;;;;16.92;2.85;;;8.80;99.90;;;;;;5055480;28;20104;-70
2022/11/23 10:13:04;;;;;;;20.42;2.70;;;8.80;99.90;;;;;;5072254;28;20144;-69
2022/11/23 10:15:44;;;;;;;21.45;3.83;;;8.80;99.90;;;;;;5054874;28;20056;-72
2022/11/23 10:18:41;;;;;;;14.77;3.08;;;8.90;99.90;;;;;;5056856;28;20093;-70
2022/11/23 10:21:16;;;;;;;17.42;1.67;;;8.90;99.90;;;;;;5073353;28;20124;-70
2022/11/23 10:23:53;;;;;;;13.70;1.83;;;8.90;99.90;;;;;;5072875;28;20044;-71
2022/11/23 10:26:28;;;;;;;16.45;2.03;;;9.00;99.90;;;;;;5072644;28;20094;-71
2022/11/23 10:28:54;;;;;;;16.13;2.22;;;9.10;99.90;;;;;;5054746;28;20139;-77
2022/11/23 10:31:26;;;;;;;16.10;1.85;;;9.10;99.90;;;;;;5054936;28;20064;-70
2022/11/23 10:33:58;;;;;;;17.35;2.17;;;9.20;99.90;;;;;;5038224;28;20036;-71
2022/11/23 10:36:24;;;;;;;16.67;1.83;;;9.20;99.90;;;;;;5072547;28;20047;-70
2022/11/23 10:38:58;;;;;;;18.27;1.85;;;9.20;99.90;;;;;;5073083;28;20124;-70
2022/11/23 10:41:25;;;;;;;15.18;2.20;;;9.30;99.90;;;;;;5055528;28;20128;-71
2022/11/23 10:44:35;;;;;;;18.67;2.20;;;9.40;99.90;;;;;;5072496;28;20045;-71
2022/11/23 10:47:01;;;;;;;15.23;1.77;;;9.50;99.90;;;;;;5072780;28;20058;-71
2022/11/23 10:49:32;;;;;;;15.57;2.28;;;9.60;99.90;;;;;;5072440;28;20066;-70
2022/11/23 10:52:08;;;;;;;17.92;2.03;;;9.60;99.90;;;;;;5054454;28;20055;-71
2022/11/23 10:54:44;;;;;;;15.95;2.60;;;9.70;99.90;;;;;;5072457;28;20520;-70
2022/11/23 10:57:29;;;;;;;19.17;2.03;;;9.80;99.90;;;;;;5072463;28;20175;-70
2022/11/23 11:00:00;;;;;;;16.58;2.08;;;9.80;99.90;;;;;;5072457;28;20036;-72
2022/11/23 11:02:27;;;;;;;15.00;2.28;;;9.60;99.90;;;;;;5072263;28;20534;-69
2022/11/23 11:05:13;;;;;;;17.10;1.77;;;9.60;99.90;;;;;;5054606;28;20052;-69
2022/11/23 11:07:39;;;;;;;14.55;1.95;;;9.40;99.90;;;;;;5054642;28;20036;-69
2022/11/23 11:10:05;;;;;;;12.00;1.65;;;9.40;99.90;;;;;;5072888;28;20295;-71
2022/11/23 11:12:34;;;;;;;12.50;1.95;;;9.40;99.90;;;;;;5073400;28;20106;-68
2022/11/23 11:15:14;;;;;;;20.27;2.00;;;9.40;99.90;;;;;;5074955;28;20056;-69
2022/11/23 11:17:40;;;;;;;17.35;2.38;;;9.40;99.90;;;;;;5076150;28;20384;-68
2022/11/23 11:20:30;;;;;;;15.30;1.90;;;9.40;99.90;;;;;;5079370;28;20048;-69
2022/11/23 11:22:58;;;;;;;14.57;1.48;;;9.50;99.90;;;;;;5061519;28;20044;-69
2022/11/23 11:25:37;;;;;;;20.08;2.47;;;9.50;99.90;;;;;;5077970;28;20357;-69
2022/11/23 11:28:17;;;;;;;16.88;1.50;;;9.60;99.90;;;;;;5077821;28;20055;-71
2022/11/23 11:30:58;;;;;;;13.40;1.30;;;9.60;99.90;;;;;;5059514;28;20047;-69
2022/11/23 11:33:42;;;;;;;15.52;1.15;;;9.80;99.90;;;;;;5075946;28;20040;-70
2022/11/23 11:36:12;;;;;;;12.70;1.63;;;9.70;99.90;;;;;;5058101;28;20049;-70
2022/11/23 11:38:40;;;;;;;14.00;1.50;;;9.70;99.90;;;;;;5058384;28;20037;-73
2022/11/23 11:41:09;;;;;;;17.25;1.77;;;9.70;99.90;;;;;;5075574;28;20116;-71
2022/11/23 11:43:44;;;;;;;15.30;1.45;;;9.70;99.90;;;;;;5075428;28;20584;-71
2022/11/23 11:46:22;;;;;;;14.82;1.58;;;;;;;;;;5075537;28;20130;-70
2022/11/23 11:48:56;;;;;;;15.40;1.35;;;9.80;99.90;;;;;;5075567;28;20088;-69
2022/11/23 11:51:28;;;;;;;15.80;2.10;;;9.80;99.90;;;;;;5075715;28;20133;-71
2022/11/23 11:54:17;;;;;;;15.02;1.67;;;9.70;99.90;;;;;;5075849;28;20052;-71
2022/11/23 11:56:51;;;;;;;20.80;1.80;;;9.80;99.90;;;;;;5076215;28;20044;-69
2022/11/23 11:59:41;;;;;;;15.10;1.30;;;9.80;99.90;;;;;;5075072;28;20052;-70
2022/11/23 12:02:28;;;;;;;19.75;1.90;;;9.80;99.90;;;;;;5075390;28;20392;-71
2022/11/23 12:05:26;;;;;;;16.33;2.05;;;9.90;99.90;;;;;;5057697;28;20062;-71
2022/11/23 12:08:05;;;;;;;15.63;2.13;;;9.90;99.90;;;;;;5075054;28;20090;-72
2022/11/23 12:10:52;;;;;;;17.73;1.65;;;9.90;99.90;;;;;;5075238;28;20048;-72
2022/11/23 12:13:30;;;;;;;11.55;1.05;;;9.90;99.90;;;;;;5074728;28;20122;-73
2022/11/23 12:16:21;;;;;;;13.20;1.02;;;9.90;99.90;;;;;;5075031;28;20048;-69
2022/11/23 12:19:12;;;;;;;16.23;1.33;;;9.90;99.90;;;;;;5075216;28;20084;-70
2022/11/23 12:21:44;;;;;;;13.95;1.23;;;;;;;;;;5075085;28;20052;-70
2022/11/23 12:24:37;;;;;;;13.32;1.52;;;9.90;99.90;;;;;;5074804;28;20071;-69
2022/11/23 12:27:10;;;;;;;12.63;1.13;;;;;;;;;;5074603;28;20040;-71
2022/11/23 12:29:44;;;;;;;16.65;1.35;;;10.20;99.90;;;;;;5056923;28;20048;-71
2022/11/23 12:32:28;;;;;;;12.60;1.30;;;9.90;99.90;;;;;;5057403;28;20437;-72
2022/11/23 12:35:12;;;;;;;11.20;1.70;;;9.90;99.90;;;;;;5040897;28;20071;-71
2022/11/23 12:38:07;;;;;;;14.35;1.52;;;9.90;99.90;;;;;;5056763;28;20131;-73
2022/11/23 12:40:38;;;;;;;12.45;0.95;;;9.90;99.90;;;;;;5052403;28;20048;-71
2022/11/23 12:43:25;;;;;;;11.65;1.95;;;9.80;99.90;;;;;;5074883;28;20071;-70
2022/11/23 12:45:58;;;;;;;10.70;1.08;;;9.80;99.90;;;;;;5074476;28;20052;-69
2022/11/23 12:48:39;;;;;;;16.08;1.30;;;9.90;99.90;;;;;;5074174;28;20045;-71
2022/11/23 12:51:13;;;;;;;17.92;1.17;;;9.90;99.90;;;;;;5074883;28;20048;-71
2022/11/23 12:54:09;;;;;;;12.95;1.48;;;9.90;99.90;;;;;;5074404;28;20087;-71
2022/11/23 12:56:56;;;;;;;15.07;1.15;;;9.90;99.90;;;;;;5074016;28;20106;-71